createdAt,value
2018-01-06T00:02:12.010Z,3.80
2018-01-06T00:04:39.876Z,3.62
2018-01-06T00:07:07.744Z,3.45
2018-01-06T00:09:35.611Z,3.30
2018-01-06T00:12:03.478Z,3.42
2018-01-06T00:14:31.345Z,3.70
2018-01-06T00:16:59.149Z,3.78
2018-01-06T00:19:27.695Z,4.18
2018-01-06T00:21:55.401Z,3.65
2018-01-06T00:24:23.860Z,3.53
2018-01-06T00:26:51.564Z,4.15
2018-01-06T00:29:19.368Z,3.50
2018-01-06T00:31:47.073Z,3.28
2018-01-06T00:34:15.548Z,3.70
2018-01-06T00:36:44.028Z,4.00
2018-01-06T00:39:12.507Z,3.85
2018-01-06T00:41:40.217Z,3.65
2018-01-06T00:44:08.006Z,4.07
2018-01-06T00:46:35.884Z,4.75
2018-01-06T00:49:03.741Z,4.12
2018-01-06T00:51:31.608Z,3.25
2018-01-06T00:53:59.475Z,3.60
2018-01-06T00:56:27.179Z,4.25
2018-01-06T00:58:55.642Z,3.25
2018-01-06T01:01:23.350Z,3.70
2018-01-06T01:03:51.049Z,4.12
2018-01-06T01:06:29.533Z,4.68
2018-01-06T01:08:59.505Z,3.97
2018-01-06T01:11:29.199Z,3.85
2018-01-06T01:14:09.554Z,4.47
2018-01-06T01:16:39.198Z,3.78
2018-01-06T01:19:07.676Z,3.53
2018-01-06T01:21:36.154Z,5.47
2018-01-06T01:24:03.861Z,3.97
2018-01-06T01:26:31.562Z,4.28
2018-01-06T01:28:59.261Z,3.60
2018-01-06T01:31:27.898Z,3.33
2018-01-06T01:33:55.767Z,4.15
2018-01-06T01:36:23.632Z,4.25
2018-01-06T01:38:51.345Z,4.30
2018-01-06T01:41:19.982Z,4.45
2018-01-06T01:43:47.850Z,4.32
2018-01-06T01:46:15.716Z,4.30
2018-01-06T01:48:43.583Z,3.62
2018-01-06T01:51:11.302Z,3.53
2018-01-06T01:53:39.013Z,3.55
2018-01-06T01:56:06.879Z,3.60
2018-01-06T01:58:34.746Z,3.92
2018-01-06T02:01:02.613Z,4.20
2018-01-06T02:03:30.481Z,4.45
2018-01-06T02:05:58.348Z,4.07
2018-01-06T02:08:26.215Z,4.10
2018-01-06T02:10:54.082Z,4.32
2018-01-06T02:13:21.958Z,4.20
2018-01-06T02:15:49.670Z,3.85
2018-01-06T02:18:17.381Z,3.85
2018-01-06T02:20:45.090Z,4.22
2018-01-06T02:23:12.822Z,4.65
2018-01-06T02:25:40.525Z,4.20
2018-01-06T02:28:08.232Z,4.50
2018-01-06T02:30:35.929Z,4.30
2018-01-06T02:33:04.480Z,4.40
2018-01-06T02:35:32.347Z,4.53
2018-01-06T02:38:00.945Z,4.68
2018-01-06T02:40:28.642Z,4.70
2018-01-06T02:42:57.102Z,3.90
2018-01-06T02:45:24.805Z,4.50
2018-01-06T02:47:52.606Z,4.20
2018-01-06T02:50:20.475Z,3.85
2018-01-06T02:52:48.194Z,4.93
2018-01-06T02:55:15.893Z,3.85
2018-01-06T02:57:43.595Z,4.55
2018-01-06T03:00:12.074Z,4.00
2018-01-06T03:02:39.910Z,4.62
2018-01-06T03:05:07.778Z,5.45
2018-01-06T03:07:35.582Z,5.37
2018-01-06T03:10:04.085Z,4.35
2018-01-06T03:12:31.810Z,5.78
2018-01-06T03:14:59.564Z,4.87
2018-01-06T03:17:27.266Z,4.68
2018-01-06T03:19:55.747Z,5.60
2018-01-06T03:22:24.223Z,4.75
2018-01-06T03:24:52.715Z,5.47
2018-01-06T03:27:21.190Z,4.62
2018-01-06T03:29:49.730Z,4.78
2018-01-06T03:32:17.453Z,5.70
2018-01-06T03:34:45.179Z,4.47
2018-01-06T03:37:12.890Z,5.05
2018-01-06T03:39:40.617Z,4.95
2018-01-06T03:42:09.094Z,5.00
2018-01-06T03:44:36.798Z,5.22
2018-01-06T03:47:04.514Z,4.82
2018-01-06T03:49:32.234Z,5.37
2018-01-06T03:51:59.948Z,5.43
2018-01-06T03:54:27.677Z,6.07
2018-01-06T03:56:55.389Z,5.72
2018-01-06T03:59:23.902Z,5.50
2018-01-06T04:01:51.618Z,5.60
2018-01-06T04:04:19.324Z,5.78
2018-01-06T04:06:47.030Z,5.75
2018-01-06T04:09:14.765Z,6.57
2018-01-06T04:11:42.550Z,6.28
2018-01-06T04:14:10.418Z,6.60
2018-01-06T04:16:38.117Z,6.60
2018-01-06T04:19:06.594Z,7.05
2018-01-06T04:21:34.310Z,5.95
2018-01-06T04:24:02.012Z,7.07
2018-01-06T04:26:29.733Z,6.28
2018-01-06T04:28:57.433Z,7.12
2018-01-06T04:31:25.132Z,7.55
2018-01-06T04:33:53.597Z,6.50
2018-01-06T04:36:22.071Z,6.37
2018-01-06T04:38:49.766Z,6.47
2018-01-06T04:41:17.460Z,6.45
2018-01-06T04:43:45.225Z,6.40
2018-01-06T04:46:12.934Z,6.55
2018-01-06T04:48:41.401Z,5.53
2018-01-06T04:51:09.106Z,5.65
2018-01-06T04:53:36.818Z,5.75
2018-01-06T04:56:04.557Z,6.80
2018-01-06T04:58:32.256Z,7.45
2018-01-06T05:00:59.961Z,7.95
2018-01-06T05:03:27.694Z,7.65
2018-01-06T05:05:55.393Z,7.82
2018-01-06T05:08:23.098Z,8.25
2018-01-06T05:10:50.808Z,7.35
2018-01-06T05:13:18.519Z,6.62
2018-01-06T05:15:46.233Z,6.35
2018-01-06T05:18:14.702Z,6.70
2018-01-06T05:20:43.182Z,5.90
2018-01-06T05:23:11.645Z,6.43
2018-01-06T05:25:39.389Z,7.15
2018-01-06T05:28:07.257Z,6.57
2018-01-06T05:30:35.124Z,6.05
2018-01-06T05:33:02.991Z,6.80
2018-01-06T05:35:30.859Z,6.20
2018-01-06T05:37:58.574Z,6.37
2018-01-06T05:40:27.046Z,7.78
2018-01-06T05:42:55.522Z,7.60
2018-01-06T05:45:24.014Z,8.35
2018-01-06T05:47:52.483Z,8.25
2018-01-06T05:50:20.954Z,7.87
2018-01-06T05:52:48.797Z,8.55
2018-01-06T05:55:16.665Z,8.07
2018-01-06T05:57:44.377Z,8.23
2018-01-06T06:00:12.853Z,8.05
2018-01-06T06:02:41.330Z,8.57
2018-01-06T06:05:09.805Z,8.43
2018-01-06T06:07:37.510Z,8.75
2018-01-06T06:10:05.226Z,10.25
2018-01-06T06:12:32.933Z,8.30
2018-01-06T06:15:00.634Z,9.10
2018-01-06T06:17:28.338Z,9.50
2018-01-06T06:19:59.991Z,8.20
2018-01-06T06:22:30.300Z,9.40
2018-01-06T06:25:00.490Z,8.75
2018-01-06T06:27:32.112Z,8.30
2018-01-06T06:30:00.991Z,8.48
2018-01-06T06:32:31.368Z,8.05
2018-01-06T06:34:59.335Z,9.43
2018-01-06T06:37:27.202Z,10.10
2018-01-06T06:39:54.921Z,10.35
2018-01-06T06:42:22.637Z,11.32
2018-01-06T06:44:50.351Z,11.93
2018-01-06T06:47:18.062Z,10.30
2018-01-06T06:49:45.778Z,11.82
2018-01-06T06:52:13.485Z,12.27
2018-01-06T06:54:41.194Z,12.75
2018-01-06T06:57:09.834Z,12.30
2018-01-06T06:59:37.701Z,13.02
2018-01-06T07:02:05.466Z,12.25
2018-01-06T07:04:33.174Z,14.45
2018-01-06T07:07:01.689Z,12.35
2018-01-06T07:09:29.389Z,13.50
2018-01-06T07:11:57.102Z,12.10
2018-01-06T07:14:24.825Z,12.55
2018-01-06T07:16:52.542Z,12.75
2018-01-06T07:19:20.249Z,12.55
2018-01-06T07:21:48.100Z,10.20
2018-01-06T07:24:15.822Z,8.02
2018-01-06T07:26:43.530Z,8.15
2018-01-06T07:29:11.234Z,9.02
2018-01-06T07:31:39.713Z,9.13
2018-01-06T07:34:08.182Z,8.65
2018-01-06T07:36:35.901Z,9.68
2018-01-06T07:39:03.734Z,9.30
2018-01-06T07:41:32.209Z,9.60
2018-01-06T07:44:00.849Z,8.70
2018-01-06T07:46:28.716Z,9.60
2018-01-06T07:48:56.585Z,10.10
2018-01-06T07:51:24.293Z,9.32
2018-01-06T07:53:52.933Z,11.48
2018-01-06T07:56:20.633Z,10.23
2018-01-06T07:58:49.118Z,11.25
2018-01-06T08:01:17.597Z,9.70
2018-01-06T08:03:46.074Z,11.60
2018-01-06T08:06:14.572Z,11.18
2018-01-06T08:08:43.041Z,11.60
2018-01-06T08:11:11.694Z,10.95
2018-01-06T08:13:39.557Z,11.77
2018-01-06T08:16:08.039Z,11.32
2018-01-06T08:18:35.749Z,11.80
2018-01-06T08:21:04.244Z,10.93
2018-01-06T08:23:31.958Z,11.05
2018-01-06T08:25:59.666Z,11.48
2018-01-06T08:28:27.375Z,11.70
2018-01-06T08:30:55.243Z,12.10
2018-01-06T08:33:23.111Z,10.27
2018-01-06T08:35:50.819Z,10.55
2018-01-06T08:38:19.294Z,10.90
2018-01-06T08:40:47.756Z,9.63
2018-01-06T08:43:15.469Z,10.85
2018-01-06T08:45:43.169Z,9.85
2018-01-06T08:48:10.873Z,10.18
2018-01-06T08:50:39.344Z,10.27
2018-01-06T08:53:07.820Z,12.37
2018-01-06T08:55:35.537Z,11.75
2018-01-06T08:58:03.281Z,11.25
2018-01-06T09:00:30.981Z,10.20
2018-01-06T09:02:58.689Z,10.27
2018-01-06T09:05:27.230Z,10.20
2018-01-06T09:07:55.097Z,9.90
2018-01-06T09:10:22.807Z,11.90
2018-01-06T09:12:51.330Z,11.02
2018-01-06T09:15:19.042Z,11.45
2018-01-06T09:17:47.525Z,12.23
2018-01-06T09:20:16.001Z,12.80
2018-01-06T09:22:44.656Z,13.32
2018-01-06T09:25:12.374Z,12.98
2018-01-06T09:27:40.185Z,11.65
2018-01-06T09:30:08.053Z,13.20
2018-01-06T09:32:35.761Z,14.23
2018-01-06T09:35:04.406Z,14.38
2018-01-06T09:37:32.271Z,13.85
2018-01-06T09:39:59.986Z,13.77
2018-01-06T09:42:27.702Z,14.85
2018-01-06T09:44:55.497Z,13.43
2018-01-06T09:47:24.148Z,15.23
2018-01-06T09:49:51.858Z,13.65
2018-01-06T09:52:20.334Z,14.73
2018-01-06T09:54:48.911Z,14.15
2018-01-06T09:57:17.416Z,14.55
2018-01-06T09:59:45.139Z,13.95
2018-01-06T10:02:12.846Z,13.90
2018-01-06T10:04:42.734Z,15.35
2018-01-06T10:07:11.318Z,15.10
2018-01-06T10:09:39.038Z,14.77
2018-01-06T10:12:06.919Z,14.57
2018-01-06T10:14:34.638Z,14.07
2018-01-06T10:17:02.502Z,14.90
2018-01-06T10:19:31.764Z,13.90
2018-01-06T10:22:02.524Z,12.30
2018-01-06T10:24:33.402Z,13.13
2018-01-06T10:27:03.173Z,13.30
2018-01-06T10:29:33.785Z,13.85
2018-01-06T10:32:04.299Z,12.75
2018-01-06T10:34:33.692Z,12.48
2018-01-06T10:37:03.471Z,12.95
2018-01-06T10:39:31.275Z,13.73
2018-01-06T10:41:59.143Z,13.30
2018-01-06T10:44:27.014Z,12.20
2018-01-06T10:46:54.980Z,13.07
2018-01-06T10:49:22.693Z,14.10
2018-01-06T10:51:51.212Z,12.68
2018-01-06T10:54:19.741Z,12.57
2018-01-06T10:56:50.541Z,14.10
2018-01-06T10:59:18.515Z,13.13
2018-01-06T11:01:53.038Z,12.60
2018-01-06T11:04:20.905Z,10.98
2018-01-06T11:06:48.772Z,11.93
2018-01-06T11:09:16.488Z,11.75
2018-01-06T11:11:44.965Z,11.15
2018-01-06T11:14:13.446Z,11.55
2018-01-06T11:16:42.085Z,9.30
2018-01-06T11:19:09.952Z,10.80
2018-01-06T11:21:37.820Z,10.90
2018-01-06T11:24:05.541Z,11.00
2018-01-06T11:26:33.250Z,11.38
2018-01-06T11:29:00.965Z,10.05
2018-01-06T11:31:28.682Z,9.48
2018-01-06T11:33:56.542Z,11.57
2018-01-06T11:36:24.410Z,10.63
2018-01-06T11:38:52.120Z,10.65
2018-01-06T11:41:20.590Z,10.98
2018-01-06T11:43:49.083Z,10.50
2018-01-06T11:46:17.557Z,11.18
2018-01-06T11:48:46.034Z,11.77
2018-01-06T11:51:14.581Z,11.05
2018-01-06T11:53:42.289Z,12.20
2018-01-06T11:56:10.766Z,11.57
2018-01-06T11:58:39.238Z,11.88
2018-01-06T12:01:07.725Z,10.95
2018-01-06T12:03:36.209Z,11.12
2018-01-06T12:06:04.718Z,11.40
2018-01-06T12:08:32.435Z,11.15
2018-01-06T12:11:00.150Z,12.37
2018-01-06T12:13:27.921Z,10.85
2018-01-06T12:15:59.190Z,18.17
2018-01-06T12:18:29.776Z,13.23
2018-01-06T12:21:00.076Z,11.82
2018-01-06T12:23:30.495Z,10.63
2018-01-06T12:26:01.261Z,11.52
2018-01-06T12:28:31.676Z,11.63
2018-01-06T12:31:01.518Z,12.45
2018-01-06T12:33:33.041Z,11.32
2018-01-06T12:36:03.218Z,11.27
2018-01-06T12:38:31.982Z,12.80
2018-01-06T12:41:01.255Z,11.35
2018-01-06T12:43:30.149Z,13.00
2018-01-06T12:46:00.716Z,11.40
2018-01-06T12:48:28.607Z,12.07
2018-01-06T12:50:56.372Z,11.57
2018-01-06T12:53:24.117Z,11.18
2018-01-06T12:55:51.835Z,11.12
2018-01-06T12:58:20.316Z,11.73
2018-01-06T13:00:48.803Z,11.85
2018-01-06T13:03:18.579Z,10.63
2018-01-06T13:05:46.444Z,11.50
2018-01-06T13:08:14.515Z,11.73
2018-01-06T13:10:42.385Z,11.35
2018-01-06T13:13:10.250Z,10.23
2018-01-06T13:15:38.117Z,11.85
2018-01-06T13:18:05.984Z,10.75
2018-01-06T13:20:33.851Z,12.95
2018-01-06T13:23:01.563Z,15.20
2018-01-06T13:25:30.054Z,13.43
2018-01-06T13:27:57.864Z,13.35
2018-01-06T13:30:25.722Z,15.15
2018-01-06T13:32:53.593Z,13.70
2018-01-06T13:35:21.286Z,12.02
2018-01-06T13:37:49.126Z,12.52
2018-01-06T13:40:16.834Z,12.90
2018-01-06T13:42:45.322Z,11.55
2018-01-06T13:45:13.802Z,11.27
2018-01-06T13:47:42.293Z,9.15
2018-01-06T13:50:10.027Z,9.95
2018-01-06T13:52:38.742Z,10.35
2018-01-06T13:55:06.658Z,9.50
2018-01-06T13:57:34.425Z,9.27
2018-01-06T14:00:02.135Z,9.50
2018-01-06T14:02:30.770Z,8.30
2018-01-06T14:04:58.638Z,9.13
2018-01-06T14:07:26.709Z,9.70
2018-01-06T14:09:55.897Z,9.88
2018-01-06T14:12:23.606Z,8.40
2018-01-06T14:14:52.092Z,8.35
2018-01-06T14:17:22.361Z,9.40
2018-01-06T14:19:50.120Z,8.18
2018-01-06T14:22:17.908Z,9.38
2018-01-06T14:24:47.266Z,9.38
2018-01-06T14:27:15.281Z,10.55
2018-01-06T14:29:42.994Z,9.48
2018-01-06T14:32:11.509Z,9.77
2018-01-06T14:34:39.223Z,10.95
2018-01-06T14:37:06.949Z,10.40
2018-01-06T14:39:34.822Z,11.60
2018-01-06T14:42:02.690Z,10.77
2018-01-06T14:44:30.556Z,11.52
2018-01-06T14:46:58.424Z,10.80
2018-01-06T14:49:26.221Z,13.15
2018-01-06T14:51:53.953Z,14.02
2018-01-06T14:54:21.664Z,12.93
2018-01-06T14:56:50.302Z,12.85
2018-01-06T14:59:18.170Z,12.77
2018-01-06T15:01:46.039Z,12.30
2018-01-06T15:04:13.906Z,13.77
2018-01-06T15:06:41.773Z,14.38
2018-01-06T15:09:09.538Z,13.15
2018-01-06T15:11:37.407Z,15.10
2018-01-06T15:14:05.274Z,14.87
2018-01-06T15:16:33.144Z,15.70
2018-01-06T15:19:01.007Z,16.23
2018-01-06T15:21:28.874Z,15.70
2018-01-06T15:23:56.741Z,17.45
2018-01-06T15:26:24.608Z,17.87
2018-01-06T15:28:52.478Z,17.52
2018-01-06T15:31:20.343Z,15.85
2018-01-06T15:33:48.209Z,16.90
2018-01-06T15:36:16.078Z,17.33
2018-01-06T15:38:43.944Z,15.80
2018-01-06T15:41:11.812Z,16.77
2018-01-06T15:43:39.679Z,16.30
2018-01-06T15:46:07.547Z,15.13
2018-01-06T15:48:35.414Z,13.95
2018-01-06T15:51:03.281Z,13.65
2018-01-06T15:53:31.149Z,11.75
2018-01-06T15:55:59.016Z,12.20
2018-01-06T15:58:26.885Z,10.52
2018-01-06T16:00:55.470Z,11.57
2018-01-06T16:03:23.335Z,10.35
2018-01-06T16:05:51.204Z,10.75
2018-01-06T16:08:19.070Z,10.20
2018-01-06T16:10:46.937Z,10.48
2018-01-06T16:13:14.804Z,10.07
2018-01-06T16:15:42.672Z,9.30
2018-01-06T16:18:10.539Z,9.02
2018-01-06T16:20:38.406Z,8.43
2018-01-06T16:23:06.273Z,9.43
2018-01-06T16:25:34.141Z,8.13
2018-01-06T16:28:01.937Z,8.45
2018-01-06T16:30:29.654Z,9.38
2018-01-06T16:32:57.394Z,8.82
2018-01-06T16:35:25.120Z,8.73
2018-01-06T16:37:52.965Z,8.70
2018-01-06T16:40:20.825Z,8.60
2018-01-06T16:42:48.700Z,8.02
2018-01-06T16:45:16.568Z,7.45
2018-01-06T16:47:44.434Z,7.32
2018-01-06T16:50:12.303Z,7.65
2018-01-06T16:52:40.172Z,7.00
2018-01-06T16:55:08.037Z,7.07
2018-01-06T16:57:35.905Z,7.75
2018-01-06T17:00:03.772Z,7.57
2018-01-06T17:02:31.511Z,7.78
2018-01-06T17:04:59.238Z,8.20
2018-01-06T17:07:27.721Z,7.28
2018-01-06T17:09:56.367Z,7.40
2018-01-06T17:12:24.237Z,7.60
2018-01-06T17:14:52.106Z,6.82
2018-01-06T17:17:19.970Z,7.82
2018-01-06T17:19:47.836Z,7.20
2018-01-06T17:22:15.704Z,8.57
2018-01-06T17:24:43.572Z,10.07
2018-01-06T17:27:11.438Z,6.55
2018-01-06T17:29:40.124Z,5.25
2018-01-06T17:32:07.993Z,5.40
2018-01-06T17:34:35.859Z,3.85
2018-01-06T17:37:03.727Z,3.87
2018-01-06T17:39:31.594Z,4.95
2018-01-06T17:41:59.462Z,4.25
2018-01-06T17:44:27.330Z,3.95
2018-01-06T17:46:55.196Z,4.70
2018-01-06T17:49:23.063Z,4.65
2018-01-06T17:51:50.930Z,5.78
2018-01-06T17:54:18.798Z,4.70
2018-01-06T17:56:48.550Z,4.85
2018-01-06T17:59:17.135Z,5.87
2018-01-06T18:01:45.779Z,6.97
2018-01-06T18:04:13.646Z,6.95
2018-01-06T18:06:41.514Z,5.75
2018-01-06T18:09:09.382Z,6.40
2018-01-06T18:11:37.248Z,6.40
2018-01-06T18:14:05.117Z,7.00
2018-01-06T18:16:32.984Z,6.50
2018-01-06T18:19:01.260Z,6.90
2018-01-06T18:21:32.089Z,5.93
2018-01-06T18:24:00.067Z,5.78
2018-01-06T18:26:28.242Z,6.82
2018-01-06T18:28:56.266Z,7.10
2018-01-06T18:31:25.001Z,5.53
2018-01-06T18:33:52.867Z,5.93
2018-01-06T18:36:20.735Z,6.95
2018-01-06T18:38:48.704Z,5.85
2018-01-06T18:41:16.571Z,6.32
2018-01-06T18:43:44.440Z,6.75
2018-01-06T18:46:12.308Z,6.37
2018-01-06T18:48:40.030Z,5.62
2018-01-06T18:51:07.840Z,5.47
2018-01-06T18:53:35.705Z,5.78
2018-01-06T18:56:03.767Z,6.45
2018-01-06T18:58:33.603Z,5.78
2018-01-06T19:01:01.325Z,5.25
2018-01-06T19:03:29.059Z,5.30
2018-01-06T19:05:57.548Z,5.57
2018-01-06T19:08:26.026Z,4.85
2018-01-06T19:10:54.666Z,4.60
2018-01-06T19:13:22.533Z,4.97
2018-01-06T19:15:50.403Z,5.18
2018-01-06T19:18:22.387Z,5.30
2018-01-06T19:20:51.153Z,4.22
2018-01-06T19:23:19.022Z,5.32
2018-01-06T19:25:46.888Z,5.15
2018-01-06T19:28:14.762Z,5.22
2018-01-06T19:30:42.622Z,5.62
2018-01-06T19:33:10.367Z,4.72
2018-01-06T19:35:38.081Z,4.80
2018-01-06T19:38:05.920Z,5.82
2018-01-06T19:40:33.784Z,4.57
2018-01-06T19:43:01.550Z,4.57
2018-01-06T19:45:29.420Z,4.37
2018-01-06T19:47:57.137Z,5.32
2018-01-06T19:50:24.947Z,4.78
2018-01-06T19:52:52.814Z,5.10
2018-01-06T19:55:20.681Z,5.80
2018-01-06T19:57:48.552Z,5.22
2018-01-06T20:00:16.418Z,5.80
2018-01-06T20:02:44.152Z,4.87
2018-01-06T20:05:11.866Z,5.35
2018-01-06T20:07:39.582Z,5.28
2018-01-06T20:10:07.309Z,5.57
2018-01-06T20:12:35.855Z,5.80
2018-01-06T20:15:03.579Z,4.80
2018-01-06T20:17:31.385Z,5.93
2018-01-06T20:19:59.252Z,5.43
2018-01-06T20:22:27.120Z,5.28
2018-01-06T20:24:54.989Z,4.60
2018-01-06T20:27:22.854Z,5.53
2018-01-06T20:29:50.721Z,5.03
2018-01-06T20:32:18.590Z,5.28
2018-01-06T20:34:46.455Z,5.50
2018-01-06T20:37:14.323Z,6.35
2018-01-06T20:39:42.907Z,5.97
2018-01-06T20:42:10.775Z,4.90
2018-01-06T20:44:38.511Z,5.55
2018-01-06T20:47:06.407Z,5.45
2018-01-06T20:49:34.117Z,5.22
2018-01-06T20:52:02.756Z,4.97
2018-01-06T20:54:30.623Z,5.00
2018-01-06T20:56:58.490Z,5.47
2018-01-06T20:59:26.357Z,4.62
2018-01-06T21:01:54.225Z,5.93
2018-01-06T21:04:22.093Z,5.25
2018-01-06T21:06:49.960Z,6.32
2018-01-06T21:09:17.828Z,5.20
2018-01-06T21:11:45.696Z,5.18
2018-01-06T21:14:13.561Z,5.12
2018-01-06T21:16:41.429Z,5.40
2018-01-06T21:19:09.296Z,5.75
2018-01-06T21:21:37.164Z,5.93
2018-01-06T21:24:04.889Z,5.87
2018-01-06T21:26:32.801Z,6.07
2018-01-06T21:29:00.664Z,6.00
2018-01-06T21:31:28.531Z,6.68
2018-01-06T21:33:56.398Z,6.07
2018-01-06T21:36:24.271Z,7.25
2018-01-06T21:38:52.136Z,6.35
2018-01-06T21:41:20.000Z,5.90
2018-01-06T21:43:47.735Z,5.90
2018-01-06T21:46:15.462Z,5.57
2018-01-06T21:48:43.946Z,5.80
2018-01-06T21:51:12.429Z,6.28
2018-01-06T21:53:41.077Z,6.68
2018-01-06T21:56:08.944Z,6.72
2018-01-06T21:58:36.812Z,6.35
2018-01-06T22:01:04.679Z,5.47
2018-01-06T22:03:32.419Z,5.40
2018-01-06T22:06:00.181Z,5.55
2018-01-06T22:08:27.913Z,5.15
2018-01-06T22:10:56.558Z,4.93
2018-01-06T22:13:24.426Z,4.57
2018-01-06T22:15:52.293Z,4.45
2018-01-06T22:18:20.160Z,4.62
2018-01-06T22:20:48.027Z,4.93
2018-01-06T22:23:15.895Z,4.20
2018-01-06T22:25:43.764Z,3.87
2018-01-06T22:28:11.629Z,4.20
2018-01-06T22:30:39.496Z,5.05
2018-01-06T22:33:07.364Z,4.40
2018-01-06T22:35:35.335Z,5.12
2018-01-06T22:38:03.201Z,4.78
2018-01-06T22:40:30.998Z,4.32
2018-01-06T22:42:59.652Z,4.90
2018-01-06T22:45:27.700Z,4.87
2018-01-06T22:47:55.591Z,4.60
2018-01-06T22:50:23.460Z,5.25
2018-01-06T22:52:51.332Z,4.78
2018-01-06T22:55:19.194Z,4.72
2018-01-06T22:57:47.060Z,4.47
2018-01-06T23:00:14.929Z,4.57
2018-01-06T23:02:42.796Z,5.55
2018-01-06T23:05:10.663Z,5.20
2018-01-06T23:07:38.533Z,4.85
2018-01-06T23:10:06.398Z,4.75
2018-01-06T23:12:34.265Z,3.87
2018-01-06T23:15:02.132Z,3.78
2018-01-06T23:17:30.000Z,5.22
2018-01-06T23:19:57.867Z,4.25
2018-01-06T23:22:25.735Z,4.50
2018-01-06T23:24:53.602Z,4.70
2018-01-06T23:27:21.469Z,4.20
2018-01-06T23:29:49.337Z,3.40
2018-01-06T23:32:17.204Z,4.03
2018-01-06T23:34:45.071Z,3.70
2018-01-06T23:37:12.942Z,4.15
2018-01-06T23:39:40.827Z,3.78
2018-01-06T23:42:08.673Z,3.87
2018-01-06T23:44:36.541Z,3.80
2018-01-06T23:47:04.305Z,3.00
2018-01-06T23:49:32.172Z,3.03
2018-01-06T23:52:00.045Z,2.87
2018-01-06T23:54:27.911Z,2.40
2018-01-06T23:56:55.774Z,3.17
2018-01-06T23:59:23.641Z,2.80
